DAL1649 KDRO-KDEN
Flight info
| Callsign | DAL1649 |
|---|---|
| Flight time | 1h 11m |
| Altitude | 19000 |
| Route | LARKS LARKS3 |
| Aircraft | DC6/M-SDE1FGHIRWXY/S |
Departure
| Time | 2026-05-04 23:08 |
|---|---|
| Airport | Durango La Plata County Airport (KDRO) |
Arrival
| Time | 2026-05-05 00:19 |
|---|---|
| Airport | Denver International Airport (KDEN) |
| Time | Latitude | Longitude | Altitude | Speed | Heading |
|---|---|---|---|---|---|
| 2026-05-04 22:48 | 37.15987 | -107.74931 | 6688 ft | 0 kts | 306° |
| 2026-05-04 22:52 | 37.15986 | -107.74929 | 6688 ft | 3 kts | 306° |
| 2026-05-04 22:52 | 37.15975 | -107.74910 | 6688 ft | 3 kts | 306° |
| 2026-05-04 22:53 | 37.15963 | -107.74891 | 6688 ft | 3 kts | 306° |
| 2026-05-04 22:53 | 37.15960 | -107.74884 | 6688 ft | 0 kts | 306° |
| 2026-05-04 22:59 | 37.15964 | -107.74891 | 6688 ft | 4 kts | 306° |
| 2026-05-04 22:59 | 37.15973 | -107.74919 | 6688 ft | 1 kts | 226° |
| 2026-05-04 22:59 | 37.15945 | -107.74911 | 6688 ft | 9 kts | 141° |
| 2026-05-04 22:59 | 37.15927 | -107.74818 | 6688 ft | 13 kts | 71° |
| 2026-05-04 23:00 | 37.15975 | -107.74768 | 6690 ft | 8 kts | 34° |
| 2026-05-04 23:00 | 37.16017 | -107.74732 | 6692 ft | 6 kts | 34° |
| 2026-05-04 23:00 | 37.16048 | -107.74706 | 6693 ft | 4 kts | 33° |
| 2026-05-04 23:00 | 37.16068 | -107.74688 | 6693 ft | 3 kts | 40° |
| 2026-05-04 23:01 | 37.16117 | -107.74635 | 6693 ft | 15 kts | 39° |
| 2026-05-04 23:01 | 37.16199 | -107.74513 | 6698 ft | 19 kts | 100° |
| 2026-05-04 23:01 | 37.16187 | -107.74483 | 6700 ft | 1 kts | 129° |
| 2026-05-04 23:01 | 37.16180 | -107.74474 | 6700 ft | 2 kts | 128° |
| 2026-05-04 23:02 | 37.16179 | -107.74471 | 6700 ft | 0 kts | 128° |
| 2026-05-04 23:02 | 37.16175 | -107.74466 | 6700 ft | 2 kts | 127° |
| 2026-05-04 23:02 | 37.16163 | -107.74447 | 6700 ft | 1 kts | 158° |
| 2026-05-04 23:02 | 37.16119 | -107.74457 | 6700 ft | 13 kts | 219° |
| 2026-05-04 23:03 | 37.16105 | -107.74471 | 6699 ft | 0 kts | 218° |
| 2026-05-04 23:05 | 37.16103 | -107.74473 | 6699 ft | 0 kts | 218° |
| 2026-05-04 23:06 | 37.16102 | -107.74474 | 6699 ft | 0 kts | 218° |
| 2026-05-04 23:06 | 37.16064 | -107.74513 | 6697 ft | 26 kts | 218° |
| 2026-05-04 23:07 | 37.15791 | -107.74779 | 6686 ft | 72 kts | 216° |
| 2026-05-04 23:07 | 37.15282 | -107.75251 | 6671 ft | 109 kts | 217° |
| 2026-05-04 23:07 | 37.14595 | -107.75851 | 6716 ft | 126 kts | 216° |
| 2026-05-04 23:07 | 37.13845 | -107.76449 | 6930 ft | 130 kts | 213° |
| 2026-05-04 23:08 | 37.13054 | -107.77040 | 7144 ft | 136 kts | 211° |
| 2026-05-04 23:08 | 37.12208 | -107.77633 | 7308 ft | 145 kts | 211° |
| 2026-05-04 23:08 | 37.11263 | -107.78220 | 7366 ft | 160 kts | 209° |
| 2026-05-04 23:08 | 37.10238 | -107.78792 | 7594 ft | 161 kts | 205° |
| 2026-05-04 23:09 | 37.09211 | -107.79291 | 7906 ft | 156 kts | 204° |
| 2026-05-04 23:09 | 37.08214 | -107.79778 | 8243 ft | 153 kts | 204° |
| 2026-05-04 23:09 | 37.07232 | -107.80263 | 8587 ft | 151 kts | 204° |
| 2026-05-04 23:09 | 37.06268 | -107.80738 | 8899 ft | 148 kts | 205° |
| 2026-05-04 23:10 | 37.05323 | -107.81201 | 9152 ft | 147 kts | 204° |
| 2026-05-04 23:10 | 37.04378 | -107.81677 | 9380 ft | 146 kts | 205° |
| 2026-05-04 23:10 | 37.03440 | -107.82137 | 9592 ft | 144 kts | 204° |
| 2026-05-04 23:10 | 37.02505 | -107.82605 | 9712 ft | 147 kts | 205° |
| 2026-05-04 23:11 | 37.01544 | -107.83079 | 9843 ft | 150 kts | 204° |
| 2026-05-04 23:11 | 37.00572 | -107.83559 | 10028 ft | 151 kts | 204° |
| 2026-05-04 23:11 | 36.99566 | -107.84065 | 10045 ft | 164 kts | 205° |
| 2026-05-04 23:11 | 36.98624 | -107.84915 | 9987 ft | 175 kts | 239° |
| 2026-05-04 23:12 | 36.98496 | -107.86411 | 10005 ft | 185 kts | 287° |
| 2026-05-04 23:12 | 36.99350 | -107.87651 | 10017 ft | 201 kts | 327° |
| 2026-05-04 23:12 | 37.00753 | -107.87916 | 10015 ft | 215 kts | 8° |
| 2026-05-04 23:12 | 37.02099 | -107.87063 | 10077 ft | 220 kts | 31° |
| 2026-05-04 23:13 | 37.03488 | -107.86177 | 10062 ft | 228 kts | 20° |
| 2026-05-04 23:13 | 37.04810 | -107.85043 | 10010 ft | 238 kts | 50° |
| 2026-05-04 23:13 | 37.05613 | -107.83229 | 10117 ft | 238 kts | 63° |
| 2026-05-04 23:13 | 37.06451 | -107.81464 | 10343 ft | 233 kts | 53° |
| 2026-05-04 23:14 | 37.07491 | -107.79943 | 10575 ft | 228 kts | 43° |
| 2026-05-04 23:14 | 37.08738 | -107.78756 | 10738 ft | 224 kts | 26° |
| 2026-05-04 23:14 | 37.10152 | -107.78002 | 10933 ft | 218 kts | 16° |
| 2026-05-04 23:14 | 37.11551 | -107.77333 | 11166 ft | 213 kts | 19° |
| 2026-05-04 23:15 | 37.12905 | -107.76603 | 11351 ft | 211 kts | 21° |
| 2026-05-04 23:15 | 37.14241 | -107.75872 | 11536 ft | 208 kts | 20° |
| 2026-05-04 23:15 | 37.15568 | -107.75162 | 11682 ft | 207 kts | 20° |
| 2026-05-04 23:15 | 37.16886 | -107.74450 | 11850 ft | 205 kts | 19° |
| 2026-05-04 23:16 | 37.18194 | -107.73746 | 12010 ft | 205 kts | 19° |
| 2026-05-04 23:16 | 37.19498 | -107.73049 | 12193 ft | 203 kts | 19° |
| 2026-05-04 23:16 | 37.20775 | -107.72356 | 12325 ft | 203 kts | 19° |
| 2026-05-04 23:16 | 37.22067 | -107.71655 | 12451 ft | 202 kts | 19° |
| 2026-05-04 23:17 | 37.23376 | -107.70955 | 12581 ft | 201 kts | 19° |
| 2026-05-04 23:17 | 37.24659 | -107.70261 | 12699 ft | 201 kts | 19° |
| 2026-05-04 23:17 | 37.25921 | -107.69573 | 12827 ft | 200 kts | 19° |
| 2026-05-04 23:17 | 37.27200 | -107.68889 | 12940 ft | 200 kts | 18° |
| 2026-05-04 23:18 | 37.28476 | -107.68205 | 13051 ft | 199 kts | 19° |
| 2026-05-04 23:18 | 37.29747 | -107.67512 | 13180 ft | 199 kts | 19° |
| 2026-05-04 23:18 | 37.31016 | -107.66826 | 13305 ft | 198 kts | 19° |
| 2026-05-04 23:18 | 37.32279 | -107.66132 | 13395 ft | 198 kts | 19° |
| 2026-05-04 23:19 | 37.33545 | -107.65448 | 13509 ft | 198 kts | 19° |
| 2026-05-04 23:19 | 37.34805 | -107.64760 | 13620 ft | 197 kts | 18° |
| 2026-05-04 23:19 | 37.36068 | -107.64092 | 13688 ft | 197 kts | 18° |
| 2026-05-04 23:19 | 37.37330 | -107.63420 | 13811 ft | 197 kts | 17° |
| 2026-05-04 23:20 | 37.38582 | -107.62737 | 13897 ft | 196 kts | 19° |
| 2026-05-04 23:20 | 37.39830 | -107.62033 | 13937 ft | 197 kts | 19° |
| 2026-05-04 23:20 | 37.41084 | -107.61360 | 14006 ft | 196 kts | 18° |
| 2026-05-04 23:20 | 37.42341 | -107.60691 | 14068 ft | 195 kts | 18° |
| 2026-05-04 23:21 | 37.45168 | -107.59149 | 14343 ft | 184 kts | 17° |
| 2026-05-04 23:21 | 37.46462 | -107.58444 | 14385 ft | 181 kts | 17° |
| 2026-05-04 23:21 | 37.47615 | -107.57820 | 14416 ft | 179 kts | 17° |
| 2026-05-04 23:21 | 37.48764 | -107.57204 | 14389 ft | 179 kts | 16° |
| 2026-05-04 23:22 | 37.49905 | -107.56576 | 14364 ft | 179 kts | 19° |
| 2026-05-04 23:22 | 37.51025 | -107.55953 | 14346 ft | 170 kts | 16° |
| 2026-05-04 23:22 | 37.52112 | -107.55381 | 14329 ft | 169 kts | 17° |
| 2026-05-04 23:22 | 37.53156 | -107.54801 | 14370 ft | 168 kts | 19° |
| 2026-05-04 23:23 | 37.54213 | -107.54223 | 14350 ft | 162 kts | 14° |
| 2026-05-04 23:23 | 37.55243 | -107.53676 | 14356 ft | 163 kts | 18° |
| 2026-05-04 23:23 | 37.56298 | -107.53077 | 14445 ft | 170 kts | 17° |
| 2026-05-04 23:23 | 37.57415 | -107.52488 | 14452 ft | 180 kts | 16° |
| 2026-05-04 23:24 | 37.58628 | -107.51830 | 14555 ft | 198 kts | 19° |
| 2026-05-04 23:24 | 37.59910 | -107.51104 | 14926 ft | 205 kts | 18° |
| 2026-05-04 23:24 | 37.61244 | -107.50370 | 15087 ft | 215 kts | 18° |
| 2026-05-04 23:24 | 37.62669 | -107.49639 | 15244 ft | 226 kts | 18° |
| 2026-05-04 23:25 | 37.64137 | -107.48828 | 15410 ft | 234 kts | 19° |
| 2026-05-04 23:25 | 37.65646 | -107.47987 | 15608 ft | 240 kts | 19° |
| 2026-05-04 23:25 | 37.67193 | -107.47140 | 15814 ft | 245 kts | 18° |
| 2026-05-04 23:25 | 37.69186 | -107.46069 | 16090 ft | 248 kts | 19° |
| 2026-05-04 23:26 | 37.75603 | -107.42535 | 16856 ft | 253 kts | 18° |
| 2026-05-04 23:26 | 37.82054 | -107.38994 | 17703 ft | 249 kts | 18° |
| 2026-05-04 23:26 | 37.88282 | -107.35575 | 18580 ft | 240 kts | 18° |
| 2026-05-04 23:26 | 37.91259 | -107.33932 | 18918 ft | 237 kts | 17° |
| 2026-05-04 23:27 | 37.92771 | -107.33109 | 19034 ft | 239 kts | 17° |
| 2026-05-04 23:27 | 37.94319 | -107.32254 | 19024 ft | 246 kts | 18° |
| 2026-05-04 23:27 | 37.95901 | -107.31380 | 19028 ft | 251 kts | 18° |
| 2026-05-04 23:27 | 37.97525 | -107.30482 | 19014 ft | 257 kts | 18° |
| 2026-05-04 23:28 | 37.99132 | -107.29588 | 19016 ft | 252 kts | 19° |
| 2026-05-04 23:28 | 38.00715 | -107.28706 | 18983 ft | 245 kts | 18° |
| 2026-05-04 23:28 | 38.02253 | -107.27868 | 18983 ft | 237 kts | 17° |
| 2026-05-04 23:28 | 38.03743 | -107.27048 | 18982 ft | 230 kts | 17° |
| 2026-05-04 23:29 | 38.05187 | -107.26243 | 18977 ft | 224 kts | 17° |
| 2026-05-04 23:29 | 38.06590 | -107.25469 | 18979 ft | 217 kts | 17° |
| 2026-05-04 23:29 | 38.07959 | -107.24716 | 18977 ft | 212 kts | 17° |
| 2026-05-04 23:29 | 38.09334 | -107.23975 | 18996 ft | 216 kts | 16° |
| 2026-05-04 23:30 | 38.10690 | -107.23206 | 18973 ft | 211 kts | 18° |
| 2026-05-04 23:30 | 38.12006 | -107.22463 | 18961 ft | 203 kts | 16° |
| 2026-05-04 23:30 | 38.13272 | -107.21772 | 18964 ft | 194 kts | 15° |
| 2026-05-04 23:30 | 38.14493 | -107.21099 | 18953 ft | 188 kts | 15° |
| 2026-05-04 23:31 | 38.15664 | -107.20452 | 18938 ft | 179 kts | 15° |
| 2026-05-04 23:31 | 38.16772 | -107.19837 | 18914 ft | 169 kts | 14° |
| 2026-05-04 23:31 | 38.17843 | -107.19252 | 18791 ft | 167 kts | 14° |
| 2026-05-04 23:31 | 38.18914 | -107.18658 | 18601 ft | 170 kts | 15° |
| 2026-05-04 23:32 | 38.19989 | -107.18050 | 18468 ft | 166 kts | 15° |
| 2026-05-04 23:32 | 38.21043 | -107.17467 | 18354 ft | 167 kts | 12° |
| 2026-05-04 23:32 | 38.22116 | -107.16919 | 18348 ft | 164 kts | 12° |
| 2026-05-04 23:32 | 38.23157 | -107.16333 | 18360 ft | 164 kts | 14° |
| 2026-05-04 23:33 | 38.24202 | -107.15735 | 18362 ft | 165 kts | 14° |
| 2026-05-04 23:33 | 38.25241 | -107.15148 | 18352 ft | 164 kts | 13° |
| 2026-05-04 23:33 | 38.25949 | -107.14756 | 18264 ft | 173 kts | 14° |
| 2026-05-04 23:33 | 38.27069 | -107.14124 | 18208 ft | 178 kts | 14° |
| 2026-05-04 23:34 | 38.28220 | -107.13479 | 18149 ft | 186 kts | 15° |
| 2026-05-04 23:34 | 38.29450 | -107.12786 | 17999 ft | 201 kts | 16° |
| 2026-05-04 23:34 | 38.30769 | -107.12048 | 17860 ft | 213 kts | 17° |
| 2026-05-04 23:34 | 38.32181 | -107.11268 | 17676 ft | 231 kts | 17° |
| 2026-05-04 23:35 | 38.33710 | -107.10421 | 17388 ft | 248 kts | 18° |
| 2026-05-04 23:35 | 38.35340 | -107.09511 | 17170 ft | 263 kts | 18° |
| 2026-05-04 23:35 | 38.37051 | -107.08552 | 16953 ft | 274 kts | 18° |
| 2026-05-04 23:35 | 38.38828 | -107.07561 | 16721 ft | 283 kts | 18° |
| 2026-05-04 23:36 | 38.40621 | -107.06559 | 16813 ft | 280 kts | 18° |
| 2026-05-04 23:36 | 38.42399 | -107.05562 | 16836 ft | 278 kts | 18° |
| 2026-05-04 23:36 | 38.44162 | -107.04547 | 16820 ft | 280 kts | 23° |
| 2026-05-04 23:36 | 38.45589 | -107.02829 | 16811 ft | 289 kts | 54° |
| 2026-05-04 23:37 | 38.46395 | -107.00482 | 16853 ft | 290 kts | 70° |
| 2026-05-04 23:37 | 38.47089 | -106.98071 | 16867 ft | 290 kts | 64° |
| 2026-05-04 23:37 | 38.47935 | -106.95742 | 16867 ft | 290 kts | 62° |
| 2026-05-04 23:37 | 38.48751 | -106.93381 | 16868 ft | 291 kts | 65° |
| 2026-05-04 23:38 | 38.49514 | -106.90978 | 16869 ft | 293 kts | 65° |
| 2026-05-04 23:38 | 38.50280 | -106.88601 | 16869 ft | 294 kts | 65° |
| 2026-05-04 23:38 | 38.51077 | -106.86205 | 16868 ft | 293 kts | 65° |
| 2026-05-04 23:38 | 38.51869 | -106.83803 | 16867 ft | 293 kts | 65° |
| 2026-05-04 23:39 | 38.52655 | -106.81398 | 16867 ft | 294 kts | 65° |
| 2026-05-04 23:39 | 38.53441 | -106.78992 | 16851 ft | 294 kts | 65° |
| 2026-05-04 23:39 | 38.54232 | -106.76581 | 16844 ft | 294 kts | 65° |
| 2026-05-04 23:39 | 38.55019 | -106.74172 | 16835 ft | 294 kts | 65° |
| 2026-05-04 23:40 | 38.55807 | -106.71759 | 16823 ft | 294 kts | 65° |
| 2026-05-04 23:40 | 38.56594 | -106.69352 | 16810 ft | 293 kts | 65° |
| 2026-05-04 23:40 | 38.57378 | -106.66947 | 16803 ft | 293 kts | 65° |
| 2026-05-04 23:40 | 38.58162 | -106.64535 | 16794 ft | 293 kts | 65° |
| 2026-05-04 23:41 | 38.58946 | -106.62129 | 16779 ft | 293 kts | 65° |
| 2026-05-04 23:41 | 38.59729 | -106.59726 | 16774 ft | 292 kts | 65° |
| 2026-05-04 23:41 | 38.60512 | -106.57318 | 16756 ft | 294 kts | 65° |
| 2026-05-04 23:41 | 38.61296 | -106.54902 | 16744 ft | 293 kts | 65° |
| 2026-05-04 23:42 | 38.62075 | -106.52494 | 16734 ft | 294 kts | 65° |
| 2026-05-04 23:42 | 38.62857 | -106.50080 | 16715 ft | 294 kts | 64° |
| 2026-05-04 23:42 | 38.63643 | -106.47668 | 16718 ft | 294 kts | 65° |
| 2026-05-04 23:42 | 38.64425 | -106.45252 | 16737 ft | 294 kts | 65° |
| 2026-05-04 23:43 | 38.65207 | -106.42825 | 16750 ft | 296 kts | 65° |
| 2026-05-04 23:43 | 38.65991 | -106.40396 | 16755 ft | 295 kts | 65° |
| 2026-05-04 23:43 | 38.66776 | -106.37972 | 16758 ft | 294 kts | 65° |
| 2026-05-04 23:43 | 38.67557 | -106.35551 | 16776 ft | 295 kts | 65° |
| 2026-05-04 23:44 | 38.68335 | -106.33131 | 16825 ft | 293 kts | 65° |
| 2026-05-04 23:44 | 38.69116 | -106.30705 | 16822 ft | 294 kts | 65° |
| 2026-05-04 23:44 | 38.69894 | -106.28292 | 16838 ft | 293 kts | 65° |
| 2026-05-04 23:44 | 38.70670 | -106.25881 | 16851 ft | 293 kts | 65° |
| 2026-05-04 23:45 | 38.71433 | -106.23502 | 16859 ft | 292 kts | 65° |
| 2026-05-04 23:45 | 38.72204 | -106.21101 | 16874 ft | 291 kts | 65° |
| 2026-05-04 23:45 | 38.72972 | -106.18702 | 16872 ft | 289 kts | 65° |
| 2026-05-04 23:45 | 38.73730 | -106.16357 | 16898 ft | 284 kts | 65° |
| 2026-05-04 23:46 | 38.74475 | -106.14006 | 16899 ft | 284 kts | 65° |
| 2026-05-04 23:46 | 38.75221 | -106.11665 | 16894 ft | 284 kts | 65° |
| 2026-05-04 23:46 | 38.75975 | -106.09322 | 16896 ft | 285 kts | 65° |
| 2026-05-04 23:46 | 38.76727 | -106.06972 | 16898 ft | 286 kts | 65° |
| 2026-05-04 23:47 | 38.77628 | -106.04724 | 16873 ft | 282 kts | 47° |
| 2026-05-04 23:47 | 38.79006 | -106.02990 | 16902 ft | 278 kts | 41° |
| 2026-05-04 23:47 | 38.80241 | -106.01064 | 16907 ft | 281 kts | 49° |
| 2026-05-04 23:47 | 38.81421 | -105.99063 | 16903 ft | 281 kts | 47° |
| 2026-05-04 23:48 | 38.82675 | -105.97147 | 16882 ft | 281 kts | 45° |
| 2026-05-04 23:48 | 38.83958 | -105.95256 | 16858 ft | 282 kts | 45° |
| 2026-05-04 23:48 | 38.85218 | -105.93322 | 16836 ft | 283 kts | 46° |
| 2026-05-04 23:48 | 38.86465 | -105.91387 | 16819 ft | 281 kts | 46° |
| 2026-05-04 23:49 | 38.87721 | -105.89464 | 16789 ft | 281 kts | 46° |
| 2026-05-04 23:49 | 38.88978 | -105.87547 | 16769 ft | 281 kts | 46° |
| 2026-05-04 23:49 | 38.90232 | -105.85619 | 16750 ft | 281 kts | 46° |
| 2026-05-04 23:49 | 38.91483 | -105.83685 | 16723 ft | 281 kts | 46° |
| 2026-05-04 23:50 | 38.92737 | -105.81755 | 16697 ft | 281 kts | 46° |
| 2026-05-04 23:50 | 38.93992 | -105.79828 | 16668 ft | 281 kts | 46° |
| 2026-05-04 23:50 | 38.95228 | -105.77923 | 16645 ft | 281 kts | 47° |
| 2026-05-04 23:50 | 38.96496 | -105.75968 | 16618 ft | 281 kts | 47° |
| 2026-05-04 23:51 | 38.97728 | -105.74062 | 16591 ft | 281 kts | 47° |
| 2026-05-04 23:51 | 38.98980 | -105.72134 | 16560 ft | 281 kts | 47° |
| 2026-05-04 23:51 | 39.00234 | -105.70201 | 16554 ft | 281 kts | 47° |
| 2026-05-04 23:51 | 39.01484 | -105.68265 | 16555 ft | 281 kts | 47° |
| 2026-05-04 23:52 | 39.02735 | -105.66332 | 16556 ft | 281 kts | 47° |
| 2026-05-04 23:52 | 39.03987 | -105.64394 | 16557 ft | 282 kts | 47° |
| 2026-05-04 23:52 | 39.05237 | -105.62459 | 16568 ft | 281 kts | 47° |
| 2026-05-04 23:52 | 39.06484 | -105.60524 | 16605 ft | 279 kts | 47° |
| 2026-05-04 23:53 | 39.07713 | -105.58618 | 16738 ft | 274 kts | 47° |
| 2026-05-04 23:53 | 39.08925 | -105.56739 | 16826 ft | 272 kts | 47° |
| 2026-05-04 23:53 | 39.10140 | -105.54861 | 16829 ft | 273 kts | 47° |
| 2026-05-04 23:53 | 39.11354 | -105.52972 | 16836 ft | 274 kts | 47° |
| 2026-05-04 23:54 | 39.12569 | -105.51080 | 16849 ft | 274 kts | 47° |
| 2026-05-04 23:54 | 39.13788 | -105.49186 | 16848 ft | 274 kts | 47° |
| 2026-05-04 23:54 | 39.15002 | -105.47297 | 16855 ft | 274 kts | 47° |
| 2026-05-04 23:54 | 39.16220 | -105.45403 | 16850 ft | 275 kts | 47° |
| 2026-05-04 23:55 | 39.17445 | -105.43496 | 16864 ft | 277 kts | 47° |
| 2026-05-04 23:55 | 39.18676 | -105.41580 | 16877 ft | 277 kts | 47° |
| 2026-05-04 23:55 | 39.21134 | -105.37745 | 16810 ft | 279 kts | 48° |
| 2026-05-04 23:56 | 39.22349 | -105.35846 | 16818 ft | 278 kts | 47° |
| 2026-05-04 23:56 | 39.23580 | -105.33923 | 16824 ft | 278 kts | 47° |
| 2026-05-04 23:56 | 39.24814 | -105.31997 | 16824 ft | 279 kts | 47° |
| 2026-05-04 23:56 | 39.26049 | -105.30064 | 16827 ft | 280 kts | 47° |
| 2026-05-04 23:57 | 39.27287 | -105.28127 | 16822 ft | 280 kts | 47° |
| 2026-05-04 23:57 | 39.28526 | -105.26186 | 16832 ft | 281 kts | 47° |
| 2026-05-04 23:57 | 39.29768 | -105.24241 | 16832 ft | 281 kts | 47° |
| 2026-05-04 23:57 | 39.31010 | -105.22294 | 16834 ft | 281 kts | 47° |
| 2026-05-04 23:58 | 39.32251 | -105.20347 | 16835 ft | 281 kts | 47° |
| 2026-05-04 23:58 | 39.33485 | -105.18404 | 16813 ft | 278 kts | 48° |
| 2026-05-04 23:58 | 39.34704 | -105.16448 | 16322 ft | 281 kts | 49° |
| 2026-05-04 23:58 | 39.35944 | -105.14483 | 15828 ft | 284 kts | 48° |
| 2026-05-04 23:59 | 39.37215 | -105.12513 | 15346 ft | 286 kts | 48° |
| 2026-05-04 23:59 | 39.38487 | -105.10524 | 14895 ft | 288 kts | 48° |
| 2026-05-04 23:59 | 39.39747 | -105.08518 | 14451 ft | 287 kts | 51° |
| 2026-05-04 23:59 | 39.40527 | -105.06154 | 14010 ft | 289 kts | 81° |
| 2026-05-05 00:00 | 39.40318 | -105.03623 | 13627 ft | 284 kts | 111° |
| 2026-05-05 00:00 | 39.40044 | -105.02882 | 13500 ft | 281 kts | 122° |
| 2026-05-05 00:00 | 39.37510 | -105.00623 | 12805 ft | 264 kts | 174° |
| 2026-05-05 00:00 | 39.35772 | -105.00899 | 12404 ft | 253 kts | 206° |
| 2026-05-05 00:01 | 39.34453 | -105.02292 | 12006 ft | 243 kts | 236° |
| 2026-05-05 00:01 | 39.33263 | -105.03691 | 12003 ft | 229 kts | 208° |
| 2026-05-05 00:01 | 39.31733 | -105.03867 | 11998 ft | 222 kts | 168° |
| 2026-05-05 00:01 | 39.30495 | -105.02798 | 11992 ft | 214 kts | 128° |
| 2026-05-05 00:02 | 39.30086 | -105.01052 | 11989 ft | 200 kts | 84° |
| 2026-05-05 00:02 | 39.30414 | -104.99396 | 12014 ft | 184 kts | 76° |
| 2026-05-05 00:02 | 39.30563 | -104.97795 | 12035 ft | 174 kts | 82° |
| 2026-05-05 00:02 | 39.30693 | -104.96280 | 11991 ft | 167 kts | 79° |
| 2026-05-05 00:03 | 39.30826 | -104.94834 | 11981 ft | 158 kts | 82° |
| 2026-05-05 00:03 | 39.30934 | -104.93441 | 11837 ft | 153 kts | 81° |
| 2026-05-05 00:03 | 39.31049 | -104.92098 | 11651 ft | 151 kts | 81° |
| 2026-05-05 00:03 | 39.31153 | -104.90745 | 11456 ft | 149 kts | 81° |
| 2026-05-05 00:04 | 39.31653 | -104.89613 | 11063 ft | 155 kts | 30° |
| 2026-05-05 00:04 | 39.32689 | -104.89499 | 10803 ft | 151 kts | 332° |
| 2026-05-05 00:04 | 39.33480 | -104.90208 | 10812 ft | 131 kts | 335° |
| 2026-05-05 00:04 | 39.34364 | -104.90627 | 10546 ft | 139 kts | 338° |
| 2026-05-05 00:05 | 39.35266 | -104.91094 | 10361 ft | 141 kts | 338° |
| 2026-05-05 00:05 | 39.36180 | -104.91576 | 10271 ft | 145 kts | 337° |
| 2026-05-05 00:05 | 39.37126 | -104.92071 | 10240 ft | 148 kts | 338° |
| 2026-05-05 00:05 | 39.38090 | -104.92570 | 10209 ft | 151 kts | 339° |
| 2026-05-05 00:06 | 39.39080 | -104.93044 | 10155 ft | 153 kts | 346° |
| 2026-05-05 00:06 | 39.40144 | -104.93020 | 10064 ft | 155 kts | 17° |
| 2026-05-05 00:06 | 39.41110 | -104.92470 | 10102 ft | 151 kts | 20° |
| 2026-05-05 00:06 | 39.42101 | -104.92037 | 10089 ft | 150 kts | 18° |
| 2026-05-05 00:07 | 39.43082 | -104.91592 | 10091 ft | 149 kts | 19° |
| 2026-05-05 00:07 | 39.44057 | -104.91154 | 10084 ft | 147 kts | 19° |
| 2026-05-05 00:07 | 39.44965 | -104.90604 | 10069 ft | 143 kts | 36° |
| 2026-05-05 00:07 | 39.45597 | -104.89664 | 10080 ft | 136 kts | 61° |
| 2026-05-05 00:08 | 39.46107 | -104.88677 | 10049 ft | 129 kts | 53° |
| 2026-05-05 00:08 | 39.46633 | -104.87698 | 9733 ft | 136 kts | 56° |
| 2026-05-05 00:08 | 39.47180 | -104.86726 | 9545 ft | 130 kts | 54° |
| 2026-05-05 00:08 | 39.47720 | -104.85791 | 9268 ft | 132 kts | 53° |
| 2026-05-05 00:09 | 39.48256 | -104.84832 | 8992 ft | 130 kts | 54° |
| 2026-05-05 00:09 | 39.48775 | -104.83888 | 8735 ft | 131 kts | 53° |
| 2026-05-05 00:09 | 39.49298 | -104.82926 | 8487 ft | 131 kts | 53° |
| 2026-05-05 00:09 | 39.49819 | -104.81947 | 8285 ft | 130 kts | 54° |
| 2026-05-05 00:10 | 39.50462 | -104.81164 | 7975 ft | 134 kts | 25° |
| 2026-05-05 00:10 | 39.51363 | -104.80929 | 7763 ft | 133 kts | 2° |
| 2026-05-05 00:10 | 39.52256 | -104.80948 | 7686 ft | 122 kts | 359° |
| 2026-05-05 00:10 | 39.53095 | -104.81058 | 7538 ft | 121 kts | 354° |
| 2026-05-05 00:11 | 39.53931 | -104.81201 | 7343 ft | 122 kts | 354° |
| 2026-05-05 00:11 | 39.54779 | -104.81240 | 7183 ft | 119 kts | 9° |
| 2026-05-05 00:11 | 39.55545 | -104.80891 | 7058 ft | 115 kts | 22° |
| 2026-05-05 00:11 | 39.56235 | -104.80456 | 6935 ft | 111 kts | 24° |
| 2026-05-05 00:12 | 39.56916 | -104.80051 | 6835 ft | 102 kts | 21° |
| 2026-05-05 00:12 | 39.57533 | -104.79646 | 6667 ft | 97 kts | 26° |
| 2026-05-05 00:12 | 39.58152 | -104.79221 | 6595 ft | 103 kts | 21° |
| 2026-05-05 00:12 | 39.58774 | -104.78736 | 6596 ft | 106 kts | 22° |
| 2026-05-05 00:13 | 39.59407 | -104.78287 | 6655 ft | 105 kts | 15° |
| 2026-05-05 00:13 | 39.60087 | -104.77890 | 6659 ft | 106 kts | 18° |
| 2026-05-05 00:13 | 39.60754 | -104.77428 | 6693 ft | 113 kts | 24° |
| 2026-05-05 00:13 | 39.62843 | -104.75982 | 6847 ft | 123 kts | 24° |
| 2026-05-05 00:14 | 39.64230 | -104.75145 | 7024 ft | 122 kts | 13° |
| 2026-05-05 00:14 | 39.65091 | -104.75071 | 7005 ft | 129 kts | 1° |
| 2026-05-05 00:14 | 39.65980 | -104.74933 | 7115 ft | 127 kts | 6° |
| 2026-05-05 00:14 | 39.68856 | -104.74532 | 7205 ft | 134 kts | 8° |
| 2026-05-05 00:15 | 39.72430 | -104.73129 | 7358 ft | 139 kts | 28° |
| 2026-05-05 00:15 | 39.74350 | -104.71383 | 7339 ft | 145 kts | 26° |
| 2026-05-05 00:15 | 39.75285 | -104.70800 | 7305 ft | 150 kts | 19° |
| 2026-05-05 00:15 | 39.76293 | -104.70494 | 7291 ft | 152 kts | 9° |
| 2026-05-05 00:16 | 39.77321 | -104.70129 | 7278 ft | 155 kts | 16° |
| 2026-05-05 00:16 | 39.78362 | -104.69722 | 7193 ft | 158 kts | 14° |
| 2026-05-05 00:16 | 39.79429 | -104.69340 | 7010 ft | 159 kts | 14° |
| 2026-05-05 00:16 | 39.80410 | -104.69079 | 6910 ft | 130 kts | 8° |
| 2026-05-05 00:17 | 39.81252 | -104.68951 | 6718 ft | 117 kts | 2° |
| 2026-05-05 00:17 | 39.82046 | -104.68876 | 6600 ft | 112 kts | 0° |
| 2026-05-05 00:17 | 39.82826 | -104.68823 | 6386 ft | 113 kts | 358° |
| 2026-05-05 00:17 | 39.83607 | -104.68818 | 6172 ft | 111 kts | 357° |
| 2026-05-05 00:18 | 39.84377 | -104.68790 | 5991 ft | 112 kts | 358° |
| 2026-05-05 00:18 | 39.85149 | -104.68749 | 5778 ft | 109 kts | 357° |
| 2026-05-05 00:18 | 39.85904 | -104.68734 | 5534 ft | 107 kts | 355° |
| 2026-05-05 00:18 | 39.86634 | -104.68722 | 5375 ft | 104 kts | 355° |
| 2026-05-05 00:19 | 39.87269 | -104.68715 | 5358 ft | 70 kts | 0° |
| 2026-05-05 00:19 | 39.87498 | -104.68690 | 5361 ft | 14 kts | 51° |
| 2026-05-05 00:19 | 39.87505 | -104.68605 | 5363 ft | 8 kts | 89° |
| 2026-05-05 00:19 | 39.87469 | -104.68500 | 5362 ft | 21 kts | 154° |
| 2026-05-05 00:20 | 39.87400 | -104.68492 | 5361 ft | 28 kts | 182° |